createdAt,value
2023-04-23T00:07:52.130Z,99.9
2023-04-23T00:09:51.877Z,99.9
2023-04-23T00:12:13.781Z,99.9
2023-04-23T00:20:16.251Z,99.9
2023-04-23T00:28:15.327Z,99.9
2023-04-23T00:30:15.166Z,99.9
2023-04-23T00:32:18.404Z,99.9
2023-04-23T00:36:17.813Z,99.9
2023-04-23T00:38:17.646Z,99.9
2023-04-23T00:40:17.373Z,99.9
2023-04-23T00:48:19.980Z,99.9
2023-04-23T01:00:21.878Z,99.9
2023-04-23T01:09:22.572Z,99.9
2023-04-23T01:11:22.292Z,99.9
2023-04-23T01:15:25.363Z,99.9
2023-04-23T01:17:25.117Z,99.9
2023-04-23T01:19:24.840Z,99.9
2023-04-23T01:21:24.610Z,99.9
2023-04-23T01:23:24.363Z,99.9
2023-04-23T01:25:24.250Z,99.9
2023-04-23T01:27:27.474Z,99.9
2023-04-23T01:29:27.302Z,99.9
2023-04-23T01:37:26.339Z,99.9
2023-04-23T01:43:29.292Z,99.9
2023-04-23T01:45:29.054Z,99.9
2023-04-23T01:47:28.977Z,99.9
2023-04-23T01:53:28.286Z,99.9
2023-04-23T01:55:31.632Z,99.9
2023-04-23T01:57:31.503Z,99.9
2023-04-23T01:59:31.272Z,99.9
2023-04-23T02:00:32.934Z,99.9
2023-04-23T02:02:32.914Z,99.9
2023-04-23T02:06:32.384Z,99.9
2023-04-23T02:08:35.754Z,99.9
2023-04-23T02:16:34.948Z,99.9
2023-04-23T02:18:34.686Z,99.9
2023-04-23T02:20:34.469Z,99.9
2023-04-23T02:22:37.702Z,99.9
2023-04-23T02:24:37.545Z,99.9
2023-04-23T02:26:37.286Z,99.9
2023-04-23T02:28:37.038Z,99.9
2023-04-23T02:30:36.813Z,99.9
2023-04-23T02:34:36.397Z,99.9
2023-04-23T02:36:39.651Z,99.9
2023-04-23T02:38:39.344Z,99.9
2023-04-23T02:40:39.149Z,99.9
2023-04-23T02:42:39.522Z,99.9
2023-04-23T02:44:38.986Z,99.9
2023-04-23T02:46:38.521Z,99.9
2023-04-23T02:48:38.311Z,99.9
2023-04-23T02:50:41.467Z,99.9
2023-04-23T02:52:41.348Z,99.9
2023-04-23T02:54:41.353Z,99.9
2023-04-23T02:55:42.615Z,99.9
2023-04-23T02:57:42.366Z,99.9
2023-04-23T03:01:41.910Z,99.9
2023-04-23T03:03:45.333Z,99.9
2023-04-23T03:07:44.634Z,99.9
2023-04-23T03:11:44.155Z,99.9
2023-04-23T03:13:44.006Z,99.9
2023-04-23T03:15:43.839Z,99.9
2023-04-23T03:17:47.005Z,99.9
2023-04-23T03:19:46.735Z,99.9
2023-04-23T03:23:46.240Z,99.9
2023-04-23T03:25:46.092Z,99.9
2023-04-23T03:27:45.840Z,99.9
2023-04-23T03:29:45.552Z,99.9
2023-04-23T03:31:48.703Z,99.9
2023-04-23T03:33:48.479Z,99.9
2023-04-23T03:37:48.096Z,99.9
2023-04-23T03:43:47.501Z,99.9
2023-04-23T03:45:50.792Z,99.9
2023-04-23T03:52:06.034Z,99.9
2023-04-23T03:54:05.783Z,99.9
2023-04-23T03:56:05.497Z,99.9
2023-04-23T03:58:08.671Z,99.9
2023-04-23T04:00:08.489Z,99.9
2023-04-23T04:04:08.302Z,99.9
2023-04-23T04:06:07.905Z,99.9
2023-04-23T04:08:07.569Z,99.9
2023-04-23T04:10:07.330Z,99.9
2023-04-23T04:26:12.162Z,99.9
2023-04-23T04:28:11.929Z,99.9
2023-04-23T04:30:11.694Z,99.9
2023-04-23T04:45:14.991Z,99.9
2023-04-23T04:47:14.759Z,99.9
2023-04-23T04:51:14.353Z,99.9
2023-04-23T04:55:17.361Z,99.9
2023-04-23T04:57:17.105Z,99.9
2023-04-23T04:59:16.838Z,99.9
2023-04-23T05:11:18.883Z,99.9
2023-04-23T05:15:18.384Z,99.9
2023-04-23T05:21:21.076Z,99.9
2023-04-23T05:27:20.303Z,99.9
2023-04-23T05:29:20.066Z,99.9
2023-04-23T05:31:19.855Z,99.9
2023-04-23T05:33:19.574Z,99.9
2023-04-23T05:35:22.744Z,99.9
2023-04-23T05:37:22.568Z,99.9
2023-04-23T05:40:23.884Z,99.9
2023-04-23T05:42:23.611Z,99.9
2023-04-23T05:50:27.511Z,99.9
2023-04-23T05:58:26.638Z,99.9
2023-04-23T06:00:26.362Z,99.9
2023-04-23T06:02:29.681Z,99.9
2023-04-23T06:04:29.459Z,99.9
2023-04-23T06:06:29.011Z,99.9
2023-04-23T06:08:28.724Z,99.9
2023-04-23T06:10:28.480Z,99.9
2023-04-23T06:14:27.960Z,99.9
2023-04-23T06:16:31.109Z,99.9
2023-04-23T06:22:30.321Z,99.9
2023-04-23T06:24:30.061Z,99.9
2023-04-23T06:26:30.758Z,99.9
2023-04-23T06:35:33.659Z,99.9
2023-04-23T06:37:33.380Z,99.9
2023-04-23T06:39:33.082Z,99.9
2023-04-23T06:41:32.794Z,99.9
2023-04-23T06:43:35.898Z,99.9
2023-04-23T06:47:35.270Z,99.9
2023-04-23T06:49:34.931Z,99.9
2023-04-23T06:59:36.514Z,99.9
2023-04-23T07:23:35.081Z,99.6
2023-04-23T07:25:37.820Z,99
2023-04-23T07:35:57.149Z,95.5
2023-04-23T07:37:59.952Z,95.1
2023-04-23T07:41:58.738Z,94.8
2023-04-23T07:43:57.984Z,94.4
2023-04-23T07:45:57.341Z,94.1
2023-04-23T07:47:56.719Z,92.4
2023-04-23T07:49:55.952Z,90.1
2023-04-23T07:51:58.582Z,90
2023-04-23T07:53:57.884Z,90.1
2023-04-23T07:55:57.163Z,90
2023-04-23T07:57:56.467Z,90.2
2023-04-23T07:59:55.758Z,90.3
2023-04-23T08:01:54.979Z,90.2
2023-04-23T08:03:55.657Z,90.1
2023-04-23T08:07:56.098Z,90.9
2023-04-23T08:09:55.348Z,90.1
2023-04-23T08:11:54.586Z,90.2
2023-04-23T08:13:53.835Z,89.1
2023-04-23T08:17:52.311Z,88.5
2023-04-23T08:19:54.887Z,88.3
2023-04-23T08:24:54.605Z,83.2
2023-04-23T08:26:53.836Z,82.9
2023-04-23T08:28:53.025Z,89.8
2023-04-23T08:30:52.240Z,84.3
2023-04-23T08:32:54.896Z,83.5
2023-04-23T08:34:53.992Z,83.5
2023-04-23T08:36:53.216Z,89.4
2023-04-23T08:38:52.401Z,88.1
2023-04-23T08:40:51.584Z,83.9
2023-04-23T08:44:49.956Z,83.8
2023-04-23T08:52:50.002Z,79
2023-04-23T08:58:47.501Z,79.7
2023-04-23T09:00:49.965Z,80.4
2023-04-23T09:02:49.669Z,81.2
2023-04-23T09:04:50.794Z,83.2
2023-04-23T09:06:47.388Z,88
2023-04-23T09:08:46.565Z,87.6
2023-04-23T09:10:45.771Z,85.9
2023-04-23T09:12:45.176Z,85.4
2023-04-23T09:14:47.492Z,84.1
2023-04-23T09:18:45.908Z,84.5
2023-04-23T09:19:47.187Z,85.4
2023-04-23T09:25:44.833Z,88.8
2023-04-23T09:27:47.452Z,88.4
2023-04-23T09:29:46.691Z,86.6
2023-04-23T09:31:45.993Z,86.8
2023-04-23T09:33:45.169Z,86.4
2023-04-23T09:35:44.472Z,83.5
2023-04-23T09:37:43.743Z,83.9
2023-04-23T09:39:43.293Z,83.9
2023-04-23T09:43:44.862Z,81.7
2023-04-23T09:47:43.470Z,79.8
2023-04-23T09:49:42.907Z,79.7
2023-04-23T09:51:42.017Z,79.4
2023-04-23T09:57:43.219Z,78.2
2023-04-23T09:59:49.843Z,77.9
2023-04-23T10:09:42.675Z,73.5
2023-04-23T10:11:41.733Z,73.3
2023-04-23T10:13:41.038Z,73.1
2023-04-23T10:14:42.315Z,72.5
2023-04-23T10:20:40.142Z,71.2
2023-04-23T10:26:41.618Z,68.7
2023-04-23T10:28:40.902Z,68.7
2023-04-23T10:30:40.135Z,68.4
2023-04-23T10:32:39.423Z,66.2
2023-04-23T10:42:38.802Z,62
2023-04-23T10:46:39.254Z,62.5
2023-04-23T10:48:36.372Z,62.7
2023-04-23T10:50:47.698Z,60
2023-04-23T10:54:37.260Z,59.4
2023-04-23T10:56:36.476Z,60
2023-04-23T11:08:34.857Z,60.1
2023-04-23T11:10:55.751Z,61
2023-04-23T11:12:54.928Z,61.6
2023-04-23T11:14:54.095Z,61.9
2023-04-23T11:18:55.816Z,62.1
2023-04-23T11:20:55.008Z,61.1
2023-04-23T11:22:54.189Z,60.7
2023-04-23T11:32:55.167Z,58.1
2023-04-23T11:36:53.462Z,57.9
2023-04-23T11:38:52.712Z,58.3
2023-04-23T11:40:51.942Z,58.4
2023-04-23T11:42:51.174Z,58.2
2023-04-23T11:48:52.213Z,59.2
2023-04-23T11:54:49.929Z,60.3
2023-04-23T12:00:51.019Z,62.1
2023-04-23T12:03:51.771Z,62.5
2023-04-23T12:05:50.858Z,62.7
2023-04-23T12:07:50.142Z,62.9
2023-04-23T12:09:49.380Z,62.4
2023-04-23T12:13:51.304Z,62.1
2023-04-23T12:17:49.862Z,62.1
2023-04-23T12:19:49.095Z,61.5
2023-04-23T12:21:48.369Z,61
2023-04-23T12:27:49.535Z,59.3
2023-04-23T12:29:48.807Z,59.4
2023-04-23T12:31:48.162Z,59.4
2023-04-23T12:33:47.388Z,59.3
2023-04-23T12:43:47.177Z,59.3
2023-04-23T12:45:46.448Z,59
2023-04-23T12:47:45.825Z,59.1
2023-04-23T12:49:45.355Z,59
2023-04-23T12:51:44.360Z,59.2
2023-04-23T12:53:47.006Z,59.7
2023-04-23T12:55:46.298Z,59.9
2023-04-23T12:57:45.597Z,60
2023-04-23T12:58:46.939Z,59.9
2023-04-23T13:00:46.238Z,59.9
2023-04-23T13:02:45.787Z,59.6
2023-04-23T13:04:44.961Z,59.5
2023-04-23T13:06:47.595Z,59
2023-04-23T13:08:46.871Z,59.1
2023-04-23T13:10:46.183Z,59.2
2023-04-23T13:12:45.447Z,59.2
2023-04-23T13:14:44.756Z,59
2023-04-23T13:16:44.106Z,59.3
2023-04-23T13:18:43.289Z,59.5
2023-04-23T13:20:45.922Z,59.7
2023-04-23T13:22:45.171Z,60.2
2023-04-23T13:24:44.473Z,60.5
2023-04-23T13:26:43.746Z,60.8
2023-04-23T13:28:43.018Z,61.6
2023-04-23T13:32:41.604Z,62.4
2023-04-23T13:34:44.212Z,63.4
2023-04-23T13:36:43.504Z,63.8
2023-04-23T13:38:42.763Z,64.1
2023-04-23T13:40:42.060Z,64.3
2023-04-23T13:42:41.357Z,64.6
2023-04-23T13:44:40.655Z,64.7
2023-04-23T13:46:39.958Z,64.5
2023-04-23T13:48:42.610Z,64.5
2023-04-23T13:50:41.875Z,64.2
2023-04-23T13:52:41.210Z,63.8
2023-04-23T13:53:42.529Z,63.6
2023-04-23T14:13:39.102Z,63.6
2023-04-23T14:15:41.783Z,63.9
2023-04-23T14:17:41.132Z,64.1
2023-04-23T14:19:40.645Z,64.4
2023-04-23T14:21:39.709Z,64.6
2023-04-23T14:23:39.070Z,64.7
2023-04-23T14:33:39.519Z,67
2023-04-23T14:35:43.377Z,71.4
2023-04-23T14:37:38.320Z,73.4
2023-04-23T14:39:37.835Z,74.6
2023-04-23T14:41:37.297Z,75.3
2023-04-23T14:43:40.194Z,75.7
2023-04-23T14:45:39.685Z,75.9
2023-04-23T14:47:39.160Z,75.5
2023-04-23T14:51:59.558Z,71.3
2023-04-23T14:53:59.078Z,71.2
2023-04-23T14:56:01.970Z,70.6
2023-04-23T14:58:01.400Z,70.2
2023-04-23T15:00:00.962Z,70
2023-04-23T15:02:00.427Z,69.4
2023-04-23T15:04:00.098Z,68.3
2023-04-23T15:07:58.960Z,66
2023-04-23T15:12:01.395Z,65.1
2023-04-23T15:14:00.930Z,64.8
2023-04-23T15:16:00.467Z,64.3
2023-04-23T15:19:59.317Z,62
2023-04-23T15:26:01.258Z,62.6
2023-04-23T15:28:00.762Z,63.2
2023-04-23T15:30:00.397Z,63.6
2023-04-23T15:31:59.849Z,65
2023-04-23T15:33:59.277Z,65.1
2023-04-23T15:35:59.984Z,65.6
2023-04-23T15:38:01.718Z,65.7
2023-04-23T15:40:01.324Z,65.4
2023-04-23T15:49:00.755Z,72.3
2023-04-23T16:03:01.183Z,99.8
2023-04-23T16:09:03.220Z,99.9
2023-04-23T16:13:02.401Z,99.9
2023-04-23T16:15:02.022Z,99.9
2023-04-23T16:21:04.249Z,99.9
2023-04-23T16:23:03.864Z,99.9
2023-04-23T16:25:03.512Z,99.9
2023-04-23T16:27:03.141Z,99.9
2023-04-23T16:33:05.568Z,99.9
2023-04-23T16:37:04.780Z,99.9
2023-04-23T16:38:06.322Z,99.9
2023-04-23T16:48:07.998Z,99.9
2023-04-23T16:50:07.702Z,99.9
2023-04-23T16:52:07.324Z,99.9
2023-04-23T16:54:07.004Z,99.9
2023-04-23T16:56:06.681Z,99.9
2023-04-23T16:58:06.329Z,99.9
2023-04-23T17:00:09.382Z,99.9
2023-04-23T17:04:08.928Z,99.9
2023-04-23T17:08:08.094Z,99.9
2023-04-23T17:10:07.803Z,99.9
2023-04-23T17:14:10.498Z,99.9
2023-04-23T17:18:12.559Z,99.9
2023-04-23T17:20:12.565Z,99.9
2023-04-23T17:24:11.850Z,99.9
2023-04-23T17:26:11.543Z,99.9
2023-04-23T17:28:14.602Z,99.9
2023-04-23T17:30:14.288Z,99.9
2023-04-23T17:32:14.002Z,99.9
2023-04-23T17:33:15.489Z,99.9
2023-04-23T17:39:14.490Z,99.9
2023-04-23T17:59:18.107Z,99.9
2023-04-23T18:01:17.929Z,99.9
2023-04-23T18:03:17.638Z,99.9
2023-04-23T18:05:17.152Z,99.9
2023-04-23T18:09:19.931Z,99.9
2023-04-23T18:15:19.008Z,99.9
2023-04-23T18:17:18.683Z,99.9
2023-04-23T18:19:18.371Z,99.9
2023-04-23T18:25:20.835Z,99.9
2023-04-23T18:29:36.104Z,99.9
2023-04-23T18:35:38.520Z,99.9
2023-04-23T18:45:36.914Z,99.9
2023-04-23T18:51:39.389Z,99.9
2023-04-23T18:53:39.065Z,99.9
2023-04-23T18:55:38.777Z,99.9
2023-04-23T18:57:38.454Z,99.9
2023-04-23T19:01:37.887Z,99.9
2023-04-23T19:03:40.993Z,99.9
2023-04-23T19:05:40.661Z,99.9
2023-04-23T19:11:39.643Z,99.9
2023-04-23T19:13:39.358Z,99.9
2023-04-23T19:15:39.057Z,99.9
2023-04-23T19:17:42.164Z,99.9
2023-04-23T19:19:42.142Z,99.9
2023-04-23T19:21:41.476Z,99.9
2023-04-23T19:22:43.042Z,99.9
2023-04-23T19:24:42.725Z,99.9
2023-04-23T19:28:42.045Z,99.9
2023-04-23T19:30:45.107Z,99.9
2023-04-23T19:32:44.833Z,99.9
2023-04-23T19:40:43.377Z,99.9
2023-04-23T19:42:43.074Z,99.9
2023-04-23T19:44:46.089Z,99.9
2023-04-23T19:46:45.808Z,99.9
2023-04-23T19:48:45.430Z,99.9
2023-04-23T19:50:45.148Z,99.9
2023-04-23T19:52:44.755Z,99.9
2023-04-23T19:54:44.367Z,99.9
2023-04-23T19:56:44.051Z,99.9
2023-04-23T19:58:47.137Z,99.9
2023-04-23T20:00:46.836Z,99.9
2023-04-23T20:02:46.607Z,99.9
2023-04-23T20:04:46.201Z,99.9
2023-04-23T20:06:45.755Z,99.9
2023-04-23T20:08:45.440Z,99.9
2023-04-23T20:10:45.088Z,99.9
2023-04-23T20:12:48.132Z,99.9
2023-04-23T20:14:47.799Z,99.9
2023-04-23T20:16:47.545Z,99.9
2023-04-23T20:17:49.006Z,99.9
2023-04-23T20:21:48.292Z,99.9
2023-04-23T20:25:51.047Z,99.9
2023-04-23T20:27:50.710Z,99.9
2023-04-23T20:29:50.363Z,99.9
2023-04-23T20:31:50.148Z,99.9
2023-04-23T20:33:49.695Z,99.9
2023-04-23T20:35:49.376Z,99.9
2023-04-23T20:37:49.024Z,99.9
2023-04-23T20:39:52.120Z,99.9
2023-04-23T20:43:51.429Z,99.9
2023-04-23T20:45:51.132Z,99.9
2023-04-23T20:57:52.538Z,99.9
2023-04-23T21:01:51.880Z,99.9
2023-04-23T21:03:51.728Z,99.9
2023-04-23T21:05:51.180Z,99.9
2023-04-23T21:07:54.250Z,99.9
2023-04-23T21:09:53.875Z,99.9
2023-04-23T21:11:53.563Z,99.9
2023-04-23T21:12:55.105Z,99.9
2023-04-23T21:18:54.107Z,99.9
2023-04-23T21:22:56.831Z,99.9
2023-04-23T21:24:56.532Z,99.9
2023-04-23T21:26:56.211Z,99.9
2023-04-23T21:32:55.240Z,99.9
2023-04-23T21:34:58.294Z,99.9
2023-04-23T21:40:57.340Z,99.9
2023-04-23T21:48:59.515Z,99.9
2023-04-23T21:50:59.200Z,99.9
2023-04-23T21:52:58.896Z,99.9
2023-04-23T21:54:58.600Z,99.9
2023-04-23T21:56:58.255Z,99.9
2023-04-23T21:58:57.972Z,99.9
2023-04-23T22:03:00.960Z,99.9
2023-04-23T22:05:00.414Z,99.9
2023-04-23T22:09:21.609Z,99.9
2023-04-23T22:11:21.302Z,99.9
2023-04-23T22:13:21.677Z,99.9
2023-04-23T22:15:24.054Z,99.9
2023-04-23T22:17:23.826Z,99.9
2023-04-23T22:21:23.103Z,99.9
2023-04-23T22:23:22.828Z,99.9
2023-04-23T22:25:22.510Z,99.9
2023-04-23T22:35:24.452Z,99.9
2023-04-23T22:37:24.139Z,99.9
2023-04-23T22:45:26.352Z,99.9
2023-04-23T22:47:26.090Z,99.9
2023-04-23T22:51:25.481Z,99.9
2023-04-23T22:55:24.884Z,99.9
2023-04-23T22:57:27.992Z,99.9
2023-04-23T22:59:27.733Z,99.9
2023-04-23T23:01:27.424Z,99.9
2023-04-23T23:02:29.093Z,99.9
2023-04-23T23:06:29.901Z,99.9
2023-04-23T23:08:29.576Z,99.9
2023-04-23T23:14:32.139Z,99.9
2023-04-23T23:20:31.279Z,99.9
2023-04-23T23:22:31.055Z,99.9
2023-04-23T23:26:33.821Z,99.9
2023-04-23T23:30:33.294Z,99.9
2023-04-23T23:34:32.701Z,99.9
2023-04-23T23:36:32.437Z,99.9
2023-04-23T23:38:35.544Z,99.9
2023-04-23T23:42:35.007Z,99.9
2023-04-23T23:46:34.487Z,99.9
2023-04-23T23:50:33.875Z,99.9
2023-04-23T23:57:38.001Z,99.9
